sensor_id;sensor_type;location;lat;lon;timestamp;pressure;altitude;pressure_sealevel;temperature;humidity
77327;BME280;66399;52.322;20.980;2022-12-29T00:03:36;100431.77;;;6.28;66.15
77327;BME280;66399;52.322;20.980;2022-12-29T00:07:43;100431.10;;;6.28;66.18
77327;BME280;66399;52.322;20.980;2022-12-29T00:11:49;100426.30;;;6.28;66.12
77327;BME280;66399;52.322;20.980;2022-12-29T00:15:56;100425.40;;;6.29;66.19
77327;BME280;66399;52.322;20.980;2022-12-29T00:20:04;100424.59;;;6.36;65.99
77327;BME280;66399;52.322;20.980;2022-12-29T00:24:28;100417.77;;;6.42;65.86
77327;BME280;66399;52.322;20.980;2022-12-29T00:28:53;100411.71;;;6.44;65.78
77327;BME280;66399;52.322;20.980;2022-12-29T00:33:18;100415.80;;;6.46;65.57
77327;BME280;66399;52.322;20.980;2022-12-29T00:37:45;100418.20;;;6.45;65.73
77327;BME280;66399;52.322;20.980;2022-12-29T00:42:12;100418.91;;;6.45;65.74
77327;BME280;66399;52.322;20.980;2022-12-29T00:46:37;100420.10;;;6.45;65.61
77327;BME280;66399;52.322;20.980;2022-12-29T00:50:44;100424.45;;;6.42;65.51
77327;BME280;66399;52.322;20.980;2022-12-29T00:54:51;100427.07;;;6.40;65.72
77327;BME280;66399;52.322;20.980;2022-12-29T00:59:01;100418.21;;;6.37;65.57
77327;BME280;66399;52.322;20.980;2022-12-29T01:03:08;100411.23;;;6.35;65.70
77327;BME280;66399;52.322;20.980;2022-12-29T01:07:15;100396.17;;;6.33;65.64
77327;BME280;66399;52.322;20.980;2022-12-29T01:11:22;100389.84;;;6.32;65.73
77327;BME280;66399;52.322;20.980;2022-12-29T01:15:29;100380.34;;;6.35;65.39
77327;BME280;66399;52.322;20.980;2022-12-29T01:19:36;100380.16;;;6.44;65.27
77327;BME280;66399;52.322;20.980;2022-12-29T01:23:42;100379.71;;;6.49;65.26
77327;BME280;66399;52.322;20.980;2022-12-29T01:27:49;100378.42;;;6.53;65.17
77327;BME280;66399;52.322;20.980;2022-12-29T01:31:56;100377.88;;;6.54;65.14
77327;BME280;66399;52.322;20.980;2022-12-29T01:36:03;100368.80;;;6.54;65.05
77327;BME280;66399;52.322;20.980;2022-12-29T01:40:12;100365.56;;;6.52;64.81
77327;BME280;66399;52.322;20.980;2022-12-29T01:44:45;100363.19;;;6.51;64.95
77327;BME280;66399;52.322;20.980;2022-12-29T01:48:57;100359.38;;;6.52;64.90
77327;BME280;66399;52.322;20.980;2022-12-29T01:53:08;100348.59;;;6.52;64.86
77327;BME280;66399;52.322;20.980;2022-12-29T01:57:19;100344.80;;;6.53;65.03
77327;BME280;66399;52.322;20.980;2022-12-29T02:01:26;100344.08;;;6.54;64.98
77327;BME280;66399;52.322;20.980;2022-12-29T02:05:37;100343.59;;;6.53;65.06
77327;BME280;66399;52.322;20.980;2022-12-29T02:09:47;100336.77;;;6.51;65.34
77327;BME280;66399;52.322;20.980;2022-12-29T02:13:54;100339.88;;;6.51;65.34
77327;BME280;66399;52.322;20.980;2022-12-29T02:18:14;100339.23;;;6.56;65.99
77327;BME280;66399;52.322;20.980;2022-12-29T02:22:28;100346.16;;;6.61;66.18
77327;BME280;66399;52.322;20.980;2022-12-29T02:26:52;100346.08;;;6.65;66.70
77327;BME280;66399;52.322;20.980;2022-12-29T02:31:11;100338.52;;;6.65;67.32
77327;BME280;66399;52.322;20.980;2022-12-29T02:35:31;100341.14;;;6.62;67.56
77327;BME280;66399;52.322;20.980;2022-12-29T02:39:45;100344.91;;;6.56;67.95
77327;BME280;66399;52.322;20.980;2022-12-29T02:44:01;100348.33;;;6.48;68.36
77327;BME280;66399;52.322;20.980;2022-12-29T02:48:16;100354.36;;;6.39;68.64
77327;BME280;66399;52.322;20.980;2022-12-29T02:52:28;100357.32;;;6.29;69.35
77327;BME280;66399;52.322;20.980;2022-12-29T02:56:37;100359.69;;;6.23;69.92
77327;BME280;66399;52.322;20.980;2022-12-29T03:00:53;100360.21;;;6.23;70.47
77327;BME280;66399;52.322;20.980;2022-12-29T03:05:16;100362.80;;;6.22;70.77
77327;BME280;66399;52.322;20.980;2022-12-29T03:09:32;100359.21;;;6.22;71.33
77327;BME280;66399;52.322;20.980;2022-12-29T03:13:46;100360.63;;;6.20;71.24
77327;BME280;66399;52.322;20.980;2022-12-29T03:18:15;100357.83;;;6.13;71.47
77327;BME280;66399;52.322;20.980;2022-12-29T03:22:31;100344.95;;;6.06;72.29
77327;BME280;66399;52.322;20.980;2022-12-29T03:26:38;100322.15;;;5.98;72.53
77327;BME280;66399;52.322;20.980;2022-12-29T03:30:47;100312.63;;;5.86;72.85
77327;BME280;66399;52.322;20.980;2022-12-29T03:34:54;100304.35;;;5.77;73.51
77327;BME280;66399;52.322;20.980;2022-12-29T03:39:05;100294.65;;;5.74;73.57
77327;BME280;66399;52.322;20.980;2022-12-29T03:43:17;100278.36;;;5.66;73.95
77327;BME280;66399;52.322;20.980;2022-12-29T03:47:25;100261.72;;;5.67;73.76
77327;BME280;66399;52.322;20.980;2022-12-29T03:51:32;100265.86;;;5.65;74.27
77327;BME280;66399;52.322;20.980;2022-12-29T03:55:38;100305.95;;;5.57;74.25
77327;BME280;66399;52.322;20.980;2022-12-29T03:59:45;100296.99;;;5.51;74.45
77327;BME280;66399;52.322;20.980;2022-12-29T04:03:52;100292.80;;;5.46;74.15
77327;BME280;66399;52.322;20.980;2022-12-29T04:07:59;100296.16;;;5.41;74.65
77327;BME280;66399;52.322;20.980;2022-12-29T04:12:06;100279.67;;;5.42;74.40
77327;BME280;66399;52.322;20.980;2022-12-29T04:16:13;100272.13;;;5.43;74.17
77327;BME280;66399;52.322;20.980;2022-12-29T04:20:19;100272.72;;;5.39;74.23
77327;BME280;66399;52.322;20.980;2022-12-29T04:24:42;100282.52;;;5.37;74.32
77327;BME280;66399;52.322;20.980;2022-12-29T04:28:49;100282.30;;;5.30;74.37
77327;BME280;66399;52.322;20.980;2022-12-29T04:32:56;100267.39;;;5.22;74.25
77327;BME280;66399;52.322;20.980;2022-12-29T04:37:03;100235.41;;;5.11;74.48
77327;BME280;66399;52.322;20.980;2022-12-29T04:41:09;100248.77;;;5.01;74.77
77327;BME280;66399;52.322;20.980;2022-12-29T04:45:16;100264.27;;;4.95;74.80
77327;BME280;66399;52.322;20.980;2022-12-29T04:49:23;100256.91;;;4.95;74.72
77327;BME280;66399;52.322;20.980;2022-12-29T04:53:29;100255.88;;;4.96;74.54
77327;BME280;66399;52.322;20.980;2022-12-29T04:57:36;100252.78;;;4.97;74.43
77327;BME280;66399;52.322;20.980;2022-12-29T05:01:43;100234.15;;;4.95;74.40
77327;BME280;66399;52.322;20.980;2022-12-29T05:05:52;100232.50;;;4.92;74.59
77327;BME280;66399;52.322;20.980;2022-12-29T05:09:59;100236.52;;;4.87;74.27
77327;BME280;66399;52.322;20.980;2022-12-29T05:14:06;100237.62;;;4.82;74.26
77327;BME280;66399;52.322;20.980;2022-12-29T05:18:13;100232.89;;;4.79;74.43
77327;BME280;66399;52.322;20.980;2022-12-29T05:22:19;100222.44;;;4.80;74.29
77327;BME280;66399;52.322;20.980;2022-12-29T05:26:26;100218.59;;;4.86;74.20
77327;BME280;66399;52.322;20.980;2022-12-29T05:30:33;100206.20;;;4.89;74.14
77327;BME280;66399;52.322;20.980;2022-12-29T05:34:39;100215.23;;;4.91;74.00
77327;BME280;66399;52.322;20.980;2022-12-29T05:38:46;100208.25;;;4.90;73.76
77327;BME280;66399;52.322;20.980;2022-12-29T05:42:53;100204.19;;;4.87;73.69
77327;BME280;66399;52.322;20.980;2022-12-29T05:47:00;100204.56;;;4.85;73.51
77327;BME280;66399;52.322;20.980;2022-12-29T05:51:07;100198.80;;;4.82;73.46
77327;BME280;66399;52.322;20.980;2022-12-29T05:55:14;100191.02;;;4.76;73.36
77327;BME280;66399;52.322;20.980;2022-12-29T05:59:23;100192.32;;;4.71;73.21
77327;BME280;66399;52.322;20.980;2022-12-29T06:03:29;100184.33;;;4.68;73.16
77327;BME280;66399;52.322;20.980;2022-12-29T06:07:36;100186.25;;;4.75;73.19
77327;BME280;66399;52.322;20.980;2022-12-29T06:11:43;100186.49;;;4.81;72.84
77327;BME280;66399;52.322;20.980;2022-12-29T06:15:50;100187.95;;;4.85;72.88
77327;BME280;66399;52.322;20.980;2022-12-29T06:19:57;100202.95;;;4.89;72.39
77327;BME280;66399;52.322;20.980;2022-12-29T06:24:05;100196.24;;;4.91;72.24
77327;BME280;66399;52.322;20.980;2022-12-29T06:28:12;100192.63;;;4.93;72.17
77327;BME280;66399;52.322;20.980;2022-12-29T06:32:19;100192.36;;;4.88;72.00
77327;BME280;66399;52.322;20.980;2022-12-29T06:36:26;100198.40;;;4.85;71.79
77327;BME280;66399;52.322;20.980;2022-12-29T06:40:32;100198.77;;;4.84;71.75
77327;BME280;66399;52.322;20.980;2022-12-29T06:44:39;100205.41;;;4.85;71.74
77327;BME280;66399;52.322;20.980;2022-12-29T06:48:46;100209.59;;;4.92;71.65
77327;BME280;66399;52.322;20.980;2022-12-29T06:52:52;100209.64;;;4.98;71.50
77327;BME280;66399;52.322;20.980;2022-12-29T06:56:59;100208.73;;;5.01;71.24
77327;BME280;66399;52.322;20.980;2022-12-29T07:01:06;100210.91;;;5.03;71.38
77327;BME280;66399;52.322;20.980;2022-12-29T07:05:13;100202.69;;;5.03;70.79
77327;BME280;66399;52.322;20.980;2022-12-29T07:09:20;100198.20;;;5.06;70.82
77327;BME280;66399;52.322;20.980;2022-12-29T07:13:27;100191.67;;;5.07;70.72
77327;BME280;66399;52.322;20.980;2022-12-29T07:17:34;100187.52;;;5.09;70.77
77327;BME280;66399;52.322;20.980;2022-12-29T07:21:40;100179.64;;;5.10;70.57
77327;BME280;66399;52.322;20.980;2022-12-29T07:25:50;100179.27;;;5.11;70.56
77327;BME280;66399;52.322;20.980;2022-12-29T07:29:56;100176.05;;;5.09;70.58
77327;BME280;66399;52.322;20.980;2022-12-29T07:34:03;100182.20;;;5.19;70.31
77327;BME280;66399;52.322;20.980;2022-12-29T07:38:10;100178.51;;;5.24;69.92
77327;BME280;66399;52.322;20.980;2022-12-29T07:42:16;100180.22;;;5.32;69.86
77327;BME280;66399;52.322;20.980;2022-12-29T07:46:23;100178.67;;;5.41;69.43
77327;BME280;66399;52.322;20.980;2022-12-29T07:50:50;100184.65;;;5.50;69.36
77327;BME280;66399;52.322;20.980;2022-12-29T07:54:58;100183.86;;;5.63;68.97
77327;BME280;66399;52.322;20.980;2022-12-29T07:59:05;100177.65;;;5.73;68.80
77327;BME280;66399;52.322;20.980;2022-12-29T08:03:11;100179.16;;;5.82;68.59
77327;BME280;66399;52.322;20.980;2022-12-29T08:07:18;100167.73;;;5.90;68.45
77327;BME280;66399;52.322;20.980;2022-12-29T08:11:25;100154.52;;;5.98;67.99
77327;BME280;66399;52.322;20.980;2022-12-29T08:15:32;100161.81;;;6.08;67.71
77327;BME280;66399;52.322;20.980;2022-12-29T08:19:39;100164.38;;;6.16;67.57
77327;BME280;66399;52.322;20.980;2022-12-29T08:23:48;100163.00;;;6.23;67.35
77327;BME280;66399;52.322;20.980;2022-12-29T08:27:55;100164.15;;;6.32;67.08
77327;BME280;66399;52.322;20.980;2022-12-29T08:32:02;100166.19;;;6.47;66.55
77327;BME280;66399;52.322;20.980;2022-12-29T08:36:10;100164.20;;;6.64;66.18
77327;BME280;66399;52.322;20.980;2022-12-29T08:40:17;100167.02;;;6.81;65.76
77327;BME280;66399;52.322;20.980;2022-12-29T08:44:23;100176.71;;;6.97;65.17
77327;BME280;66399;52.322;20.980;2022-12-29T08:48:30;100183.73;;;7.11;65.00
77327;BME280;66399;52.322;20.980;2022-12-29T08:52:37;100179.01;;;7.21;64.87
77327;BME280;66399;52.322;20.980;2022-12-29T08:56:44;100177.73;;;7.29;64.31
77327;BME280;66399;52.322;20.980;2022-12-29T09:00:53;100182.17;;;7.36;64.12
77327;BME280;66399;52.322;20.980;2022-12-29T09:05:00;100175.08;;;7.43;63.85
77327;BME280;66399;52.322;20.980;2022-12-29T09:09:07;100175.80;;;7.49;63.61
77327;BME280;66399;52.322;20.980;2022-12-29T09:13:14;100167.77;;;7.52;63.08
77327;BME280;66399;52.322;20.980;2022-12-29T09:17:21;100162.96;;;7.58;62.72
77327;BME280;66399;52.322;20.980;2022-12-29T09:21:46;100163.78;;;7.65;62.79
77327;BME280;66399;52.322;20.980;2022-12-29T09:25:52;100163.83;;;7.69;62.57
77327;BME280;66399;52.322;20.980;2022-12-29T09:29:59;100154.52;;;7.77;62.68
77327;BME280;66399;52.322;20.980;2022-12-29T09:34:06;100147.85;;;7.81;62.08
77327;BME280;66399;52.322;20.980;2022-12-29T09:38:13;100150.21;;;7.83;61.79
77327;BME280;66399;52.322;20.980;2022-12-29T09:42:25;100145.46;;;7.86;61.57
77327;BME280;66399;52.322;20.980;2022-12-29T09:46:36;100150.20;;;7.94;61.29
77327;BME280;66399;52.322;20.980;2022-12-29T09:50:46;100144.98;;;8.01;61.20
77327;BME280;66399;52.322;20.980;2022-12-29T09:54:57;100140.25;;;8.09;61.38
77327;BME280;66399;52.322;20.980;2022-12-29T09:59:17;100134.35;;;8.16;61.12
77327;BME280;66399;52.322;20.980;2022-12-29T10:03:32;100133.86;;;8.21;60.64
77327;BME280;66399;52.322;20.980;2022-12-29T10:07:48;100130.47;;;8.25;60.44
77327;BME280;66399;52.322;20.980;2022-12-29T10:12:06;100125.85;;;8.30;60.64
77327;BME280;66399;52.322;20.980;2022-12-29T10:16:20;100119.40;;;8.32;60.53
77327;BME280;66399;52.322;20.980;2022-12-29T10:20:33;100111.62;;;8.34;60.59
77327;BME280;66399;52.322;20.980;2022-12-29T10:24:43;100109.28;;;8.37;60.33
77327;BME280;66399;52.322;20.980;2022-12-29T10:28:54;100110.05;;;8.39;60.29
77327;BME280;66399;52.322;20.980;2022-12-29T10:33:05;100113.64;;;8.45;60.36
77327;BME280;66399;52.322;20.980;2022-12-29T10:37:21;100109.59;;;8.48;60.24
77327;BME280;66399;52.322;20.980;2022-12-29T10:41:43;100101.65;;;8.54;60.29
77327;BME280;66399;52.322;20.980;2022-12-29T10:45:52;100103.73;;;8.63;59.87
77327;BME280;66399;52.322;20.980;2022-12-29T10:50:00;100095.98;;;8.73;59.76
77327;BME280;66399;52.322;20.980;2022-12-29T10:54:13;100102.14;;;8.79;59.48
77327;BME280;66399;52.322;20.980;2022-12-29T10:58:22;100091.92;;;8.85;59.22
77327;BME280;66399;52.322;20.980;2022-12-29T11:02:46;100084.69;;;8.90;58.76
77327;BME280;66399;52.322;20.980;2022-12-29T11:06:58;100089.55;;;8.93;58.81
77327;BME280;66399;52.322;20.980;2022-12-29T11:11:07;100085.94;;;8.94;58.53
77327;BME280;66399;52.322;20.980;2022-12-29T11:15:16;100081.92;;;8.95;58.37
77327;BME280;66399;52.322;20.980;2022-12-29T11:19:24;100073.31;;;9.00;58.47
77327;BME280;66399;52.322;20.980;2022-12-29T11:23:33;100076.05;;;9.00;58.39
77327;BME280;66399;52.322;20.980;2022-12-29T11:27:40;100069.96;;;9.07;58.41
77327;BME280;66399;52.322;20.980;2022-12-29T11:32:16;100079.13;;;9.10;58.28
77327;BME280;66399;52.322;20.980;2022-12-29T11:36:34;100081.88;;;9.10;58.23
77327;BME280;66399;52.322;20.980;2022-12-29T11:40:42;100080.34;;;9.10;58.19
77327;BME280;66399;52.322;20.980;2022-12-29T11:44:50;100082.21;;;9.06;58.09
77327;BME280;66399;52.322;20.980;2022-12-29T11:48:58;100079.95;;;9.02;58.14
77327;BME280;66399;52.322;20.980;2022-12-29T11:53:08;100080.96;;;9.02;58.32
77327;BME280;66399;52.322;20.980;2022-12-29T11:57:21;100082.19;;;9.11;58.27
77327;BME280;66399;52.322;20.980;2022-12-29T12:01:33;100071.91;;;9.18;58.13
77327;BME280;66399;52.322;20.980;2022-12-29T12:05:46;100073.59;;;9.25;58.15
77327;BME280;66399;52.322;20.980;2022-12-29T12:10:00;100070.55;;;9.27;58.03
77327;BME280;66399;52.322;20.980;2022-12-29T12:14:18;100066.64;;;9.31;58.02
77327;BME280;66399;52.322;20.980;2022-12-29T12:18:34;100066.32;;;9.35;58.04
77327;BME280;66399;52.322;20.980;2022-12-29T12:22:48;100069.68;;;9.41;58.11
77327;BME280;66399;52.322;20.980;2022-12-29T12:27:02;100067.52;;;9.48;57.92
77327;BME280;66399;52.322;20.980;2022-12-29T12:31:21;100061.36;;;9.51;57.74
77327;BME280;66399;52.322;20.980;2022-12-29T12:35:35;100056.94;;;9.50;57.65
77327;BME280;66399;52.322;20.980;2022-12-29T12:39:55;100048.45;;;9.51;57.75
77327;BME280;66399;52.322;20.980;2022-12-29T12:44:15;100039.09;;;9.56;57.63
77327;BME280;66399;52.322;20.980;2022-12-29T12:48:36;100041.92;;;9.58;57.71
77327;BME280;66399;52.322;20.980;2022-12-29T12:53:09;100042.05;;;9.60;57.61
77327;BME280;66399;52.322;20.980;2022-12-29T12:57:31;100028.77;;;9.60;57.63
77327;BME280;66399;52.322;20.980;2022-12-29T13:01:50;100035.13;;;9.61;57.72
77327;BME280;66399;52.322;20.980;2022-12-29T13:06:13;100035.25;;;9.62;57.70
77327;BME280;66399;52.322;20.980;2022-12-29T13:10:41;100043.67;;;9.63;57.69
77327;BME280;66399;52.322;20.980;2022-12-29T13:15:05;100036.27;;;9.62;57.60
77327;BME280;66399;52.322;20.980;2022-12-29T13:19:20;100032.23;;;9.64;57.54
77327;BME280;66399;52.322;20.980;2022-12-29T13:23:36;100036.88;;;9.69;57.49
77327;BME280;66399;52.322;20.980;2022-12-29T13:27:50;100037.58;;;9.69;57.39
77327;BME280;66399;52.322;20.980;2022-12-29T13:32:12;100039.23;;;9.66;57.26
77327;BME280;66399;52.322;20.980;2022-12-29T13:36:27;100040.86;;;9.64;57.56
77327;BME280;66399;52.322;20.980;2022-12-29T13:40:40;100042.85;;;9.62;57.68
77327;BME280;66399;52.322;20.980;2022-12-29T13:44:51;100042.39;;;9.56;57.95
77327;BME280;66399;52.322;20.980;2022-12-29T13:49:02;100053.23;;;9.56;58.14
77327;BME280;66399;52.322;20.980;2022-12-29T13:53:18;100054.02;;;9.54;58.27
77327;BME280;66399;52.322;20.980;2022-12-29T13:57:34;100056.70;;;9.52;58.46
77327;BME280;66399;52.322;20.980;2022-12-29T14:01:53;100057.67;;;9.48;58.48
77327;BME280;66399;52.322;20.980;2022-12-29T14:06:16;100052.35;;;9.44;58.71
77327;BME280;66399;52.322;20.980;2022-12-29T14:10:27;100061.80;;;9.44;58.65
77327;BME280;66399;52.322;20.980;2022-12-29T14:14:36;100060.86;;;9.42;58.64
77327;BME280;66399;52.322;20.980;2022-12-29T14:18:44;100050.83;;;9.39;58.76
77327;BME280;66399;52.322;20.980;2022-12-29T14:22:59;100044.92;;;9.35;58.67
77327;BME280;66399;52.322;20.980;2022-12-29T14:27:44;100041.80;;;9.31;58.65
77327;BME280;66399;52.322;20.980;2022-12-29T14:31:54;100031.91;;;9.24;58.73
77327;BME280;66399;52.322;20.980;2022-12-29T14:36:21;100028.36;;;9.14;58.81
77327;BME280;66399;52.322;20.980;2022-12-29T14:40:31;100037.01;;;8.99;59.05
77327;BME280;66399;52.322;20.980;2022-12-29T14:44:47;100042.00;;;8.85;59.24
77327;BME280;66399;52.322;20.980;2022-12-29T14:48:59;100050.67;;;8.74;59.70
77327;BME280;66399;52.322;20.980;2022-12-29T14:53:10;100057.44;;;8.72;59.79
77327;BME280;66399;52.322;20.980;2022-12-29T14:57:38;100052.02;;;8.75;59.67
77327;BME280;66399;52.322;20.980;2022-12-29T15:01:49;100052.05;;;8.74;59.81
77327;BME280;66399;52.322;20.980;2022-12-29T15:06:04;100053.59;;;8.64;59.88
77327;BME280;66399;52.322;20.980;2022-12-29T15:10:16;100052.55;;;8.55;60.14
77327;BME280;66399;52.322;20.980;2022-12-29T15:14:35;100055.15;;;8.45;60.37
77327;BME280;66399;52.322;20.980;2022-12-29T15:18:42;100056.78;;;8.37;60.69
77327;BME280;66399;52.322;20.980;2022-12-29T15:22:52;100058.58;;;8.30;60.90
77327;BME280;66399;52.322;20.980;2022-12-29T15:27:04;100047.16;;;8.21;61.05
77327;BME280;66399;52.322;20.980;2022-12-29T15:31:15;100062.81;;;8.21;61.20
77327;BME280;66399;52.322;20.980;2022-12-29T15:35:30;100059.12;;;8.24;61.45
77327;BME280;66399;52.322;20.980;2022-12-29T15:39:38;100053.27;;;8.29;61.32
77327;BME280;66399;52.322;20.980;2022-12-29T15:43:53;100051.77;;;8.28;61.62
77327;BME280;66399;52.322;20.980;2022-12-29T15:48:03;100054.89;;;8.27;61.61
77327;BME280;66399;52.322;20.980;2022-12-29T15:52:13;100058.29;;;8.23;62.01
77327;BME280;66399;52.322;20.980;2022-12-29T15:56:24;100053.52;;;8.16;61.94
77327;BME280;66399;52.322;20.980;2022-12-29T16:00:33;100052.75;;;8.08;62.20
77327;BME280;66399;52.322;20.980;2022-12-29T16:04:41;100055.64;;;8.04;62.09
77327;BME280;66399;52.322;20.980;2022-12-29T16:09:16;100053.20;;;8.00;62.34
77327;BME280;66399;52.322;20.980;2022-12-29T16:13:26;100051.51;;;7.94;62.65
77327;BME280;66399;52.322;20.980;2022-12-29T16:17:45;100052.20;;;7.88;62.94
77327;BME280;66399;52.322;20.980;2022-12-29T16:21:53;100053.77;;;7.83;62.92
77327;BME280;66399;52.322;20.980;2022-12-29T16:26:00;100058.03;;;7.78;63.29
77327;BME280;66399;52.322;20.980;2022-12-29T16:30:16;100060.75;;;7.74;63.23
77327;BME280;66399;52.322;20.980;2022-12-29T16:34:25;100062.88;;;7.71;63.41
77327;BME280;66399;52.322;20.980;2022-12-29T16:38:33;100066.97;;;7.78;63.76
77327;BME280;66399;52.322;20.980;2022-12-29T16:42:48;100065.34;;;7.81;63.56
77327;BME280;66399;52.322;20.980;2022-12-29T16:47:04;100073.74;;;7.93;63.40
77327;BME280;66399;52.322;20.980;2022-12-29T16:51:16;100075.63;;;8.03;63.48
77327;BME280;66399;52.322;20.980;2022-12-29T16:55:23;100075.86;;;8.12;63.47
77327;BME280;66399;52.322;20.980;2022-12-29T16:59:33;100074.98;;;8.17;63.25
77327;BME280;66399;52.322;20.980;2022-12-29T17:03:45;100079.54;;;8.26;63.19
77327;BME280;66399;52.322;20.980;2022-12-29T17:07:53;100075.99;;;8.34;63.11
77327;BME280;66399;52.322;20.980;2022-12-29T17:12:07;100076.91;;;8.42;63.35
77327;BME280;66399;52.322;20.980;2022-12-29T17:16:16;100074.08;;;8.50;62.99
77327;BME280;66399;52.322;20.980;2022-12-29T17:20:24;100075.96;;;8.54;62.84
77327;BME280;66399;52.322;20.980;2022-12-29T17:24:32;100083.05;;;8.59;62.54
77327;BME280;66399;52.322;20.980;2022-12-29T17:28:39;100083.77;;;8.63;62.68
77327;BME280;66399;52.322;20.980;2022-12-29T17:32:50;100077.67;;;8.65;62.51
77327;BME280;66399;52.322;20.980;2022-12-29T17:36:57;100077.42;;;8.68;62.56
77327;BME280;66399;52.322;20.980;2022-12-29T17:41:04;100077.71;;;8.68;62.47
77327;BME280;66399;52.322;20.980;2022-12-29T17:45:19;100067.14;;;8.66;62.16
77327;BME280;66399;52.322;20.980;2022-12-29T17:49:26;100066.95;;;8.66;62.19
77327;BME280;66399;52.322;20.980;2022-12-29T17:53:33;100061.09;;;8.56;62.48
77327;BME280;66399;52.322;20.980;2022-12-29T17:57:40;100062.39;;;8.49;62.52
77327;BME280;66399;52.322;20.980;2022-12-29T18:01:47;100055.66;;;8.35;62.70
77327;BME280;66399;52.322;20.980;2022-12-29T18:05:54;100063.26;;;8.23;62.87
77327;BME280;66399;52.322;20.980;2022-12-29T18:10:01;100072.23;;;8.22;63.26
77327;BME280;66399;52.322;20.980;2022-12-29T18:14:12;100074.45;;;8.29;63.28
77327;BME280;66399;52.322;20.980;2022-12-29T18:18:20;100079.86;;;8.37;63.22
77327;BME280;66399;52.322;20.980;2022-12-29T18:22:27;100080.66;;;8.38;63.19
77327;BME280;66399;52.322;20.980;2022-12-29T18:26:34;100085.80;;;8.39;63.25
77327;BME280;66399;52.322;20.980;2022-12-29T18:30:42;100094.45;;;8.43;63.29
77327;BME280;66399;52.322;20.980;2022-12-29T18:34:48;100090.84;;;8.43;63.21
77327;BME280;66399;52.322;20.980;2022-12-29T18:38:55;100093.27;;;8.42;63.32
77327;BME280;66399;52.322;20.980;2022-12-29T18:43:02;100096.42;;;8.41;63.14
77327;BME280;66399;52.322;20.980;2022-12-29T18:47:09;100092.80;;;8.36;63.28
77327;BME280;66399;52.322;20.980;2022-12-29T18:51:18;100092.20;;;8.33;63.27
77327;BME280;66399;52.322;20.980;2022-12-29T18:55:27;100093.66;;;8.35;63.27
77327;BME280;66399;52.322;20.980;2022-12-29T18:59:34;100094.27;;;8.37;63.06
77327;BME280;66399;52.322;20.980;2022-12-29T19:03:41;100091.03;;;8.37;63.27
77327;BME280;66399;52.322;20.980;2022-12-29T19:07:48;100091.34;;;8.33;63.34
77327;BME280;66399;52.322;20.980;2022-12-29T19:11:55;100085.03;;;8.31;63.49
77327;BME280;66399;52.322;20.980;2022-12-29T19:16:01;100083.75;;;8.34;63.29
77327;BME280;66399;52.322;20.980;2022-12-29T19:20:24;100082.51;;;8.35;63.33
77327;BME280;66399;52.322;20.980;2022-12-29T19:24:31;100082.74;;;8.33;63.13
77327;BME280;66399;52.322;20.980;2022-12-29T19:28:38;100086.52;;;8.28;63.34
77327;BME280;66399;52.322;20.980;2022-12-29T19:32:47;100089.86;;;8.26;63.45
77327;BME280;66399;52.322;20.980;2022-12-29T19:36:55;100087.33;;;8.24;63.45
77327;BME280;66399;52.322;20.980;2022-12-29T19:41:06;100081.13;;;8.19;63.50
77327;BME280;66399;52.322;20.980;2022-12-29T19:45:13;100087.05;;;8.16;63.36
77327;BME280;66399;52.322;20.980;2022-12-29T19:49:20;100087.82;;;8.14;63.69
77327;BME280;66399;52.322;20.980;2022-12-29T19:53:28;100080.41;;;8.09;63.63
77327;BME280;66399;52.322;20.980;2022-12-29T19:57:34;100088.88;;;8.13;63.66
77327;BME280;66399;52.322;20.980;2022-12-29T20:01:41;100093.18;;;8.18;63.74
77327;BME280;66399;52.322;20.980;2022-12-29T20:05:49;100096.28;;;8.24;63.72
77327;BME280;66399;52.322;20.980;2022-12-29T20:09:56;100092.75;;;8.26;63.59
77327;BME280;66399;52.322;20.980;2022-12-29T20:14:03;100097.52;;;8.39;63.60
77327;BME280;66399;52.322;20.980;2022-12-29T20:18:10;100095.55;;;8.46;63.28
77327;BME280;66399;52.322;20.980;2022-12-29T20:22:19;100098.30;;;8.51;63.25
77327;BME280;66399;52.322;20.980;2022-12-29T20:26:29;100094.45;;;8.52;63.19
77327;BME280;66399;52.322;20.980;2022-12-29T20:30:36;100097.25;;;8.46;63.41
77327;BME280;66399;52.322;20.980;2022-12-29T20:34:43;100094.56;;;8.34;63.38
77327;BME280;66399;52.322;20.980;2022-12-29T20:38:51;100093.71;;;8.23;63.40
77327;BME280;66399;52.322;20.980;2022-12-29T20:42:58;100099.91;;;8.18;63.60
77327;BME280;66399;52.322;20.980;2022-12-29T20:47:05;100095.85;;;8.15;63.62
77327;BME280;66399;52.322;20.980;2022-12-29T20:51:12;100095.65;;;8.16;63.97
77327;BME280;66399;52.322;20.980;2022-12-29T20:55:19;100098.11;;;8.15;64.12
77327;BME280;66399;52.322;20.980;2022-12-29T20:59:26;100101.73;;;8.14;64.10
77327;BME280;66399;52.322;20.980;2022-12-29T21:03:34;100100.46;;;8.16;64.02
77327;BME280;66399;52.322;20.980;2022-12-29T21:07:40;100102.87;;;8.22;64.02
77327;BME280;66399;52.322;20.980;2022-12-29T21:11:47;100106.88;;;8.37;63.77
77327;BME280;66399;52.322;20.980;2022-12-29T21:15:58;100100.53;;;8.51;63.38
77327;BME280;66399;52.322;20.980;2022-12-29T21:20:06;100103.60;;;8.62;63.46
77327;BME280;66399;52.322;20.980;2022-12-29T21:24:13;100104.41;;;8.69;63.19
77327;BME280;66399;52.322;20.980;2022-12-29T21:28:21;100109.02;;;8.74;62.97
77327;BME280;66399;52.322;20.980;2022-12-29T21:32:28;100109.05;;;8.78;62.73
77327;BME280;66399;52.322;20.980;2022-12-29T21:36:35;100106.42;;;8.80;62.81
77327;BME280;66399;52.322;20.980;2022-12-29T21:40:41;100106.27;;;8.79;62.71
77327;BME280;66399;52.322;20.980;2022-12-29T21:44:48;100106.29;;;8.78;62.82
77327;BME280;66399;52.322;20.980;2022-12-29T21:49:11;100108.73;;;8.78;62.79
77327;BME280;66399;52.322;20.980;2022-12-29T21:53:17;100106.89;;;8.76;62.80